createdAt,value
2023-02-25T00:00:34.491Z,10.03
2023-02-25T00:03:01.616Z,9.52
2023-02-25T00:05:31.843Z,9.31
2023-02-25T00:07:59.020Z,9.54
2023-02-25T00:10:25.534Z,9.41
2023-02-25T00:12:52.132Z,9.39
2023-02-25T00:15:19.910Z,9.40
2023-02-25T00:17:46.631Z,9.18
2023-02-25T00:20:13.904Z,9.41
2023-02-25T00:22:40.713Z,9.14
2023-02-25T00:25:08.957Z,9.12
2023-02-25T00:27:36.186Z,9.08
2023-02-25T00:30:03.709Z,9.04
2023-02-25T00:32:30.343Z,9.00
2023-02-25T00:34:57.423Z,8.93
2023-02-25T00:37:24.229Z,8.87
2023-02-25T00:39:50.769Z,8.69
2023-02-25T00:42:18.601Z,8.77
2023-02-25T00:44:49.895Z,8.80
2023-02-25T00:47:19.073Z,8.60
2023-02-25T00:49:50.524Z,8.75
2023-02-25T00:52:17.245Z,8.29
2023-02-25T00:54:43.829Z,8.68
2023-02-25T00:57:10.516Z,8.26
2023-02-25T00:59:37.189Z,8.45
2023-02-25T01:02:04.716Z,8.57
2023-02-25T01:04:31.639Z,8.63
2023-02-25T01:06:59.304Z,8.44
2023-02-25T01:09:26.108Z,8.56
2023-02-25T01:11:53.094Z,8.51
2023-02-25T01:14:24.950Z,8.45
2023-02-25T01:16:52.908Z,8.00
2023-02-25T01:19:23.539Z,8.41
2023-02-25T01:21:55.089Z,8.48
2023-02-25T01:24:32.834Z,8.56
2023-02-25T01:27:03.085Z,8.39
2023-02-25T01:29:33.893Z,8.53
2023-02-25T01:32:03.256Z,8.44
2023-02-25T01:34:30.716Z,8.50
2023-02-25T01:36:57.770Z,8.46
2023-02-25T01:39:26.535Z,8.34
2023-02-25T01:41:54.693Z,8.46
2023-02-25T01:44:32.796Z,8.53
2023-02-25T01:47:00.755Z,8.44
2023-02-25T01:49:34.115Z,8.26
2023-02-25T01:52:11.314Z,8.16
2023-02-25T01:54:38.668Z,8.12
2023-02-25T01:57:08.108Z,8.26
2023-02-25T01:59:36.498Z,8.40
2023-02-25T02:02:03.781Z,8.38
2023-02-25T02:04:31.540Z,8.30
2023-02-25T02:06:59.222Z,8.45
2023-02-25T02:09:28.688Z,8.30
2023-02-25T02:12:01.408Z,8.39
2023-02-25T02:14:32.455Z,8.25
2023-02-25T02:17:30.008Z,8.40
2023-02-25T02:20:25.755Z,8.49
2023-02-25T02:23:24.092Z,8.33
2023-02-25T02:26:11.274Z,8.41
2023-02-25T02:28:51.321Z,8.35
2023-02-25T02:31:18.004Z,8.42
2023-02-25T02:33:55.319Z,8.27
2023-02-25T02:36:43.917Z,8.47
2023-02-25T02:39:34.696Z,8.46
2023-02-25T02:42:27.502Z,8.55
2023-02-25T02:45:02.589Z,8.57
2023-02-25T02:47:42.461Z,8.41
2023-02-25T02:50:21.054Z,8.40
2023-02-25T02:52:52.105Z,8.51
2023-02-25T02:55:32.189Z,8.25
2023-02-25T02:58:06.661Z,8.21
2023-02-25T03:00:41.061Z,8.00
2023-02-25T03:03:16.792Z,8.22
2023-02-25T03:05:48.192Z,8.42
2023-02-25T03:08:19.316Z,8.25
2023-02-25T03:10:47.184Z,8.47
2023-02-25T03:13:15.816Z,8.33
2023-02-25T03:15:43.985Z,8.24
2023-02-25T03:18:23.927Z,7.54
2023-02-25T03:20:53.833Z,7.43
2023-02-25T03:23:23.826Z,7.78
2023-02-25T03:25:59.560Z,7.68
2023-02-25T03:28:31.783Z,7.91
2023-02-25T03:31:11.855Z,7.87
2023-02-25T03:33:47.763Z,7.98
2023-02-25T03:36:27.037Z,8.05
2023-02-25T03:38:59.540Z,8.06
2023-02-25T03:41:35.307Z,8.07
2023-02-25T03:44:07.547Z,7.99
2023-02-25T03:46:35.615Z,8.30
2023-02-25T03:49:05.149Z,8.42
2023-02-25T03:51:36.128Z,8.43
2023-02-25T03:54:03.011Z,8.14
2023-02-25T03:56:42.842Z,7.96
2023-02-25T03:59:09.428Z,8.06
2023-02-25T04:01:38.555Z,7.80
2023-02-25T04:04:05.284Z,7.88
2023-02-25T04:06:31.991Z,8.05
2023-02-25T04:08:58.726Z,8.03
2023-02-25T04:11:25.572Z,8.15
2023-02-25T04:13:52.615Z,8.31
2023-02-25T04:16:19.675Z,8.52
2023-02-25T04:18:47.264Z,8.39
2023-02-25T04:21:29.907Z,8.50
2023-02-25T04:23:56.808Z,8.69
2023-02-25T04:26:23.881Z,8.77
2023-02-25T04:28:50.609Z,8.69
2023-02-25T04:31:17.584Z,8.87
2023-02-25T04:33:49.654Z,8.64
2023-02-25T04:36:31.863Z,8.62
2023-02-25T04:39:01.468Z,8.22
2023-02-25T04:41:30.744Z,8.27
2023-02-25T04:43:57.980Z,8.52
2023-02-25T04:46:24.978Z,8.54
2023-02-25T04:48:51.820Z,8.63
2023-02-25T04:51:18.494Z,8.39
2023-02-25T04:53:46.623Z,8.37
2023-02-25T04:56:13.178Z,8.38
2023-02-25T04:58:39.890Z,8.29
2023-02-25T05:01:08.752Z,8.67
2023-02-25T05:03:35.885Z,8.67
2023-02-25T05:06:03.702Z,8.85
2023-02-25T05:08:30.357Z,8.86
2023-02-25T05:10:56.893Z,8.86
2023-02-25T05:13:23.904Z,8.36
2023-02-25T05:15:50.591Z,8.51
2023-02-25T05:18:17.191Z,8.74
2023-02-25T05:20:47.052Z,8.77
2023-02-25T05:23:14.261Z,8.75
2023-02-25T05:25:43.781Z,8.83
2023-02-25T05:28:13.328Z,8.66
2023-02-25T05:30:40.114Z,8.94
2023-02-25T05:33:09.136Z,8.59
2023-02-25T05:35:39.736Z,8.57
2023-02-25T05:38:06.406Z,8.62
2023-02-25T05:40:32.927Z,8.54
2023-02-25T05:42:59.430Z,8.78
2023-02-25T05:45:25.988Z,8.65
2023-02-25T05:47:52.806Z,8.89
2023-02-25T05:50:19.495Z,8.88
2023-02-25T05:52:46.794Z,8.84
2023-02-25T05:55:13.343Z,8.60
2023-02-25T05:57:40.584Z,8.36
2023-02-25T06:00:09.751Z,8.70
2023-02-25T06:02:38.835Z,8.66
2023-02-25T06:05:06.361Z,8.66
2023-02-25T06:07:33.411Z,8.53
2023-02-25T06:10:00.992Z,8.83
2023-02-25T06:12:33.437Z,8.72
2023-02-25T06:15:00.334Z,8.90
2023-02-25T06:17:26.897Z,9.09
2023-02-25T06:19:53.750Z,9.01
2023-02-25T06:22:21.455Z,8.82
2023-02-25T06:24:48.544Z,8.94
2023-02-25T06:27:15.879Z,8.98
2023-02-25T06:29:42.575Z,9.12
2023-02-25T06:32:11.282Z,9.05
2023-02-25T06:34:38.500Z,8.85
2023-02-25T06:37:05.439Z,9.07
2023-02-25T06:39:32.278Z,9.01
2023-02-25T06:41:59.092Z,9.12
2023-02-25T06:44:27.111Z,9.18
2023-02-25T06:46:57.075Z,9.32
2023-02-25T06:49:23.911Z,9.11
2023-02-25T06:51:50.527Z,9.19
2023-02-25T06:54:18.210Z,9.31
2023-02-25T06:56:45.314Z,9.02
2023-02-25T06:59:11.880Z,9.00
2023-02-25T07:01:38.482Z,9.24
2023-02-25T07:04:05.099Z,9.19
2023-02-25T07:06:31.755Z,9.04
2023-02-25T07:08:58.270Z,9.21
2023-02-25T07:11:24.917Z,9.05
2023-02-25T07:13:51.733Z,9.36
2023-02-25T07:16:18.561Z,9.20
2023-02-25T07:18:45.411Z,8.94
2023-02-25T07:21:13.541Z,9.18
2023-02-25T07:23:40.623Z,9.47
2023-02-25T07:26:09.560Z,9.55
2023-02-25T07:28:36.266Z,9.64
2023-02-25T07:31:05.567Z,9.59
2023-02-25T07:33:32.299Z,9.58
2023-02-25T07:35:58.876Z,9.51
2023-02-25T07:38:25.820Z,9.62
2023-02-25T07:40:52.832Z,9.77
2023-02-25T07:43:19.539Z,9.88
2023-02-25T07:45:46.180Z,10.15
2023-02-25T07:48:12.678Z,10.40
2023-02-25T07:50:39.193Z,10.47
2023-02-25T07:53:05.728Z,10.39
2023-02-25T07:55:32.238Z,10.60
2023-02-25T07:57:58.833Z,10.11
2023-02-25T08:00:25.489Z,10.26
2023-02-25T08:02:52.130Z,10.16
2023-02-25T08:05:21.779Z,10.13
2023-02-25T08:07:48.312Z,9.97
2023-02-25T08:10:14.945Z,9.75
2023-02-25T08:12:41.505Z,9.66
2023-02-25T08:15:08.272Z,9.77
2023-02-25T08:17:35.119Z,10.08
2023-02-25T08:20:01.806Z,10.26
2023-02-25T08:22:28.363Z,9.99
2023-02-25T08:24:54.888Z,9.93
2023-02-25T08:27:21.439Z,9.93
2023-02-25T08:29:48.073Z,10.09
2023-02-25T08:32:14.754Z,9.79
2023-02-25T08:34:41.418Z,9.89
2023-02-25T08:37:11.113Z,10.11
2023-02-25T08:39:37.944Z,10.08
2023-02-25T08:42:05.548Z,10.06
2023-02-25T08:44:32.154Z,10.21
2023-02-25T08:47:01.879Z,10.01
2023-02-25T08:49:29.209Z,9.94
2023-02-25T08:51:55.809Z,10.51
2023-02-25T08:54:22.926Z,10.57
2023-02-25T08:56:54.282Z,10.72
2023-02-25T08:59:21.245Z,10.77
2023-02-25T09:01:49.130Z,10.71
2023-02-25T09:04:24.278Z,10.73
2023-02-25T09:06:52.683Z,10.84
2023-02-25T09:09:20.964Z,10.76
2023-02-25T09:11:48.689Z,10.88
2023-02-25T09:14:16.097Z,10.04
2023-02-25T09:16:42.974Z,10.30
2023-02-25T09:19:12.327Z,10.50
2023-02-25T09:21:41.923Z,10.41
2023-02-25T09:24:09.435Z,9.57
2023-02-25T09:26:36.479Z,9.55
2023-02-25T09:29:04.858Z,9.55
2023-02-25T09:31:33.555Z,9.61
2023-02-25T09:34:04.462Z,9.12
2023-02-25T09:36:31.445Z,9.14
2023-02-25T09:38:58.005Z,9.77
2023-02-25T09:41:33.162Z,10.15
2023-02-25T09:44:30.946Z,10.16
2023-02-25T09:47:05.062Z,10.02
2023-02-25T09:49:41.397Z,9.80
2023-02-25T09:52:19.219Z,10.14
2023-02-25T09:54:48.305Z,10.41
2023-02-25T09:57:22.454Z,10.49
2023-02-25T09:59:53.402Z,9.30
2023-02-25T10:02:42.665Z,10.30
2023-02-25T10:05:28.737Z,10.16
2023-02-25T10:08:07.557Z,10.55
2023-02-25T10:11:12.645Z,10.19
2023-02-25T10:14:18.390Z,10.23
2023-02-25T10:17:10.870Z,10.14
2023-02-25T10:20:09.382Z,10.15
2023-02-25T10:23:23.540Z,10.41
2023-02-25T10:26:07.254Z,10.58
2023-02-25T10:28:35.615Z,10.56
2023-02-25T10:31:06.711Z,10.42
2023-02-25T10:33:42.488Z,10.30
2023-02-25T10:36:34.489Z,10.59
2023-02-25T10:39:01.095Z,10.99
2023-02-25T10:41:28.125Z,11.29
2023-02-25T10:43:55.899Z,11.41
2023-02-25T10:46:41.707Z,11.25
2023-02-25T10:49:26.017Z,10.93
2023-02-25T10:52:22.906Z,10.95
2023-02-25T10:54:51.690Z,10.87
2023-02-25T10:57:25.836Z,11.62
2023-02-25T11:00:23.140Z,11.79
2023-02-25T11:02:51.521Z,11.74
2023-02-25T11:05:40.769Z,11.19
2023-02-25T11:08:26.554Z,11.83
2023-02-25T11:11:26.966Z,12.18
2023-02-25T11:14:02.753Z,11.88
2023-02-25T11:16:32.141Z,12.13
2023-02-25T11:19:02.073Z,11.74
2023-02-25T11:21:37.470Z,11.82
2023-02-25T11:24:12.717Z,11.41
2023-02-25T11:26:45.247Z,11.74
2023-02-25T11:29:25.825Z,11.99
2023-02-25T11:31:56.770Z,12.41
2023-02-25T11:34:26.990Z,12.26
2023-02-25T11:36:53.907Z,12.16
2023-02-25T11:39:26.325Z,12.38
2023-02-25T11:41:55.926Z,12.08
2023-02-25T11:44:30.172Z,11.70
2023-02-25T11:47:08.965Z,11.72
2023-02-25T11:49:42.630Z,11.37
2023-02-25T11:52:13.414Z,11.62
2023-02-25T11:54:53.669Z,11.66
2023-02-25T11:57:38.467Z,12.00
2023-02-25T12:00:24.470Z,12.30
2023-02-25T12:03:35.661Z,11.96
2023-02-25T12:06:08.246Z,12.07
2023-02-25T12:09:27.214Z,12.22
2023-02-25T12:12:24.696Z,12.33
2023-02-25T12:15:18.883Z,12.32
2023-02-25T12:18:18.138Z,11.83
2023-02-25T12:21:19.828Z,12.02
2023-02-25T12:24:07.657Z,13.29
2023-02-25T12:26:58.471Z,12.97
2023-02-25T12:29:49.879Z,14.33
2023-02-25T12:32:41.241Z,15.41
2023-02-25T12:35:14.154Z,16.05
2023-02-25T12:37:56.263Z,16.31
2023-02-25T12:40:48.632Z,17.49
2023-02-25T12:43:24.856Z,16.62
2023-02-25T12:46:20.294Z,14.28
2023-02-25T12:49:05.654Z,13.87
2023-02-25T12:51:56.342Z,13.35
2023-02-25T12:54:34.542Z,13.67
2023-02-25T12:57:38.181Z,11.79
2023-02-25T13:00:23.138Z,11.48
2023-02-25T13:03:06.911Z,11.02
2023-02-25T13:05:55.030Z,11.96
2023-02-25T13:08:43.837Z,11.91
2023-02-25T13:11:19.429Z,13.07
2023-02-25T13:14:21.917Z,14.40
2023-02-25T13:17:06.937Z,15.68
2023-02-25T13:19:36.788Z,15.81
2023-02-25T13:22:37.342Z,16.61
2023-02-25T13:25:33.875Z,16.85
2023-02-25T13:28:23.224Z,15.71
2023-02-25T13:30:58.434Z,15.88
2023-02-25T13:33:43.829Z,15.00
2023-02-25T13:36:32.605Z,14.10
2023-02-25T13:39:24.304Z,13.31
2023-02-25T13:42:22.607Z,14.74
2023-02-25T13:45:01.711Z,16.08
2023-02-25T13:47:52.271Z,13.56
2023-02-25T13:50:56.600Z,14.47
2023-02-25T13:53:56.188Z,14.91
2023-02-25T13:56:47.499Z,15.85
2023-02-25T13:59:16.850Z,16.92
2023-02-25T14:01:53.202Z,15.78
2023-02-25T14:04:53.161Z,14.75
2023-02-25T14:07:50.798Z,13.07
2023-02-25T14:10:23.558Z,12.60
2023-02-25T14:13:05.330Z,12.90
2023-02-25T14:15:47.597Z,12.97
2023-02-25T14:18:34.132Z,12.94
2023-02-25T14:21:23.968Z,13.17
2023-02-25T14:24:19.208Z,13.24
2023-02-25T14:27:27.301Z,12.93
2023-02-25T14:30:01.699Z,12.90
2023-02-25T14:33:05.387Z,11.67
2023-02-25T14:35:51.876Z,11.58
2023-02-25T14:38:32.602Z,12.28
2023-02-25T14:41:26.802Z,12.48
2023-02-25T14:44:00.783Z,12.24
2023-02-25T14:46:27.337Z,12.18
2023-02-25T14:49:26.624Z,12.09
2023-02-25T14:52:11.695Z,12.25
2023-02-25T14:54:56.919Z,12.30
2023-02-25T14:57:32.509Z,11.77
2023-02-25T15:00:33.688Z,11.93
2023-02-25T15:03:33.163Z,11.50
2023-02-25T15:06:19.417Z,11.71
2023-02-25T15:09:01.348Z,11.89
2023-02-25T15:11:53.146Z,11.46
2023-02-25T15:14:57.407Z,11.24
2023-02-25T15:17:56.473Z,11.14
2023-02-25T15:20:35.250Z,11.01
2023-02-25T15:23:09.609Z,11.07
2023-02-25T15:25:38.140Z,11.15
2023-02-25T15:28:30.237Z,11.61
2023-02-25T15:30:59.544Z,11.42
2023-02-25T15:33:39.434Z,10.83
2023-02-25T15:36:14.917Z,11.07
2023-02-25T15:38:52.767Z,11.36
2023-02-25T15:41:34.433Z,11.22
2023-02-25T15:44:20.936Z,11.04
2023-02-25T15:46:48.931Z,10.60
2023-02-25T15:49:35.200Z,10.44
2023-02-25T15:52:04.712Z,10.19
2023-02-25T15:54:31.359Z,10.80
2023-02-25T15:57:24.281Z,10.98
2023-02-25T15:59:55.274Z,10.80
2023-02-25T16:02:30.631Z,10.39
2023-02-25T16:05:13.547Z,10.80
2023-02-25T16:07:59.367Z,10.88
2023-02-25T16:10:36.023Z,10.83
2023-02-25T16:13:03.112Z,10.98
2023-02-25T16:16:00.296Z,11.16
2023-02-25T16:18:29.836Z,11.16
2023-02-25T16:21:04.428Z,10.98
2023-02-25T16:23:32.853Z,11.18
2023-02-25T16:26:12.414Z,11.10
2023-02-25T16:29:22.685Z,10.89
2023-02-25T16:31:55.266Z,10.80
2023-02-25T16:34:46.557Z,11.00
2023-02-25T16:37:24.947Z,10.79
2023-02-25T16:39:51.913Z,10.86
2023-02-25T16:42:19.280Z,10.76
2023-02-25T16:44:56.107Z,10.65
2023-02-25T16:47:29.625Z,10.20
2023-02-25T16:49:59.822Z,10.44
2023-02-25T16:52:34.164Z,10.41
2023-02-25T16:55:05.780Z,10.76
2023-02-25T16:57:36.344Z,10.86
2023-02-25T17:00:19.201Z,10.53
2023-02-25T17:03:00.465Z,10.49
2023-02-25T17:05:37.165Z,10.46
2023-02-25T17:08:10.290Z,9.91
2023-02-25T17:10:56.020Z,10.08
2023-02-25T17:13:36.283Z,9.52
2023-02-25T17:16:04.993Z,10.20
2023-02-25T17:18:48.761Z,10.00
2023-02-25T17:21:30.436Z,10.30
2023-02-25T17:24:00.324Z,9.75
2023-02-25T17:26:27.497Z,10.21
2023-02-25T17:28:57.685Z,10.22
2023-02-25T17:31:27.854Z,10.06
2023-02-25T17:33:57.048Z,10.31
2023-02-25T17:36:27.292Z,10.27
2023-02-25T17:39:02.912Z,10.34
2023-02-25T17:41:30.387Z,10.26
2023-02-25T17:43:57.111Z,10.34
2023-02-25T17:46:27.485Z,10.34
2023-02-25T17:49:00.889Z,10.31
2023-02-25T17:51:36.438Z,10.41
2023-02-25T17:54:09.094Z,10.49
2023-02-25T17:56:36.753Z,10.35
2023-02-25T17:59:07.576Z,10.54
2023-02-25T18:01:58.761Z,10.47
2023-02-25T18:04:37.792Z,10.04
2023-02-25T18:07:29.715Z,8.88
2023-02-25T18:09:57.263Z,8.88
2023-02-25T18:12:27.995Z,8.86
2023-02-25T18:14:59.322Z,8.47
2023-02-25T18:17:28.242Z,8.48
2023-02-25T18:20:01.971Z,8.32
2023-02-25T18:22:41.148Z,8.15
2023-02-25T18:25:30.370Z,8.59
2023-02-25T18:27:56.989Z,8.43
2023-02-25T18:30:26.404Z,8.34
2023-02-25T18:32:54.017Z,8.24
2023-02-25T18:35:21.915Z,8.02
2023-02-25T18:37:50.955Z,8.20
2023-02-25T18:40:27.700Z,8.22
2023-02-25T18:42:54.399Z,8.19
2023-02-25T18:45:23.189Z,8.28
2023-02-25T18:47:50.607Z,8.29
2023-02-25T18:50:18.023Z,7.85
2023-02-25T18:52:44.999Z,8.01
2023-02-25T18:55:32.333Z,8.11
2023-02-25T18:57:59.716Z,7.91
2023-02-25T19:00:27.292Z,8.16
2023-02-25T19:02:57.908Z,7.96
2023-02-25T19:05:25.602Z,7.94
2023-02-25T19:07:52.351Z,7.94
2023-02-25T19:10:25.773Z,8.05
2023-02-25T19:13:00.478Z,7.75
2023-02-25T19:15:27.116Z,7.97
2023-02-25T19:17:53.631Z,7.82
2023-02-25T19:20:20.623Z,7.80
2023-02-25T19:22:49.504Z,7.72
2023-02-25T19:25:24.901Z,7.90
2023-02-25T19:27:52.777Z,7.99
2023-02-25T19:30:23.336Z,8.11
2023-02-25T19:32:49.851Z,7.91
2023-02-25T19:35:16.909Z,7.89
2023-02-25T19:37:44.377Z,8.01
2023-02-25T19:40:14.675Z,8.08
2023-02-25T19:42:44.089Z,8.09
2023-02-25T19:45:14.017Z,8.10
2023-02-25T19:47:40.640Z,8.06
2023-02-25T19:50:07.707Z,8.12
2023-02-25T19:52:34.236Z,8.11
2023-02-25T19:55:01.149Z,8.17
2023-02-25T19:57:28.054Z,8.11
2023-02-25T19:59:54.582Z,8.00
2023-02-25T20:02:21.155Z,8.01
2023-02-25T20:04:47.685Z,8.10
2023-02-25T20:07:15.449Z,8.09
2023-02-25T20:09:42.419Z,8.15
2023-02-25T20:12:09.410Z,8.19
2023-02-25T20:14:36.237Z,8.13
2023-02-25T20:17:02.853Z,8.10
2023-02-25T20:19:32.471Z,8.11
2023-02-25T20:22:00.662Z,8.16
2023-02-25T20:24:27.851Z,8.20
2023-02-25T20:26:54.382Z,8.18
2023-02-25T20:29:21.389Z,8.17
2023-02-25T20:31:48.313Z,8.14
2023-02-25T20:34:19.372Z,8.10
2023-02-25T20:36:54.638Z,8.12
2023-02-25T20:39:37.738Z,8.07
2023-02-25T20:42:18.044Z,8.13
2023-02-25T20:44:44.766Z,8.18
2023-02-25T20:47:38.648Z,8.18
2023-02-25T20:50:07.268Z,7.94
2023-02-25T20:52:34.167Z,7.83
2023-02-25T20:55:00.712Z,7.95
2023-02-25T20:57:27.417Z,7.88
2023-02-25T20:59:54.477Z,7.58
2023-02-25T21:02:21.530Z,7.05
2023-02-25T21:04:48.426Z,7.49
2023-02-25T21:07:15.367Z,7.36
2023-02-25T21:09:41.963Z,7.47
2023-02-25T21:12:08.938Z,7.22
2023-02-25T21:14:35.798Z,7.51
2023-02-25T21:17:02.377Z,7.53
2023-02-25T21:19:29.109Z,7.36
2023-02-25T21:21:56.147Z,7.18
2023-02-25T21:24:23.097Z,7.45
2023-02-25T21:26:49.800Z,7.46
2023-02-25T21:29:16.395Z,7.48
2023-02-25T21:31:43.839Z,7.56
2023-02-25T21:34:12.761Z,7.69
2023-02-25T21:36:40.535Z,7.54
2023-02-25T21:39:09.293Z,7.65
2023-02-25T21:41:37.976Z,7.59
2023-02-25T21:44:04.572Z,7.63
2023-02-25T21:46:31.209Z,7.66
2023-02-25T21:49:06.296Z,7.58
2023-02-25T21:51:32.843Z,7.60
2023-02-25T21:54:01.070Z,7.51
2023-02-25T21:56:29.151Z,7.53
2023-02-25T21:58:57.318Z,7.61
2023-02-25T22:01:26.984Z,7.70
2023-02-25T22:03:54.381Z,7.62
2023-02-25T22:06:24.843Z,7.55
2023-02-25T22:08:52.424Z,7.60
2023-02-25T22:11:21.740Z,7.55
2023-02-25T22:13:49.674Z,7.72
2023-02-25T22:16:16.883Z,7.69
2023-02-25T22:18:43.792Z,7.61
2023-02-25T22:21:11.952Z,7.50
2023-02-25T22:23:40.254Z,7.67
2023-02-25T22:26:09.307Z,7.38
2023-02-25T22:28:36.462Z,6.99
2023-02-25T22:31:03.811Z,7.16
2023-02-25T22:33:33.632Z,7.51
2023-02-25T22:36:02.193Z,7.38
2023-02-25T22:38:30.534Z,7.59
2023-02-25T22:40:57.971Z,7.51
2023-02-25T22:43:24.733Z,7.64
2023-02-25T22:45:51.565Z,7.57
2023-02-25T22:48:18.231Z,7.70
2023-02-25T22:50:49.140Z,6.93
2023-02-25T22:53:16.943Z,7.27
2023-02-25T22:55:43.898Z,7.27
2023-02-25T22:58:10.546Z,7.15
2023-02-25T23:00:43.250Z,6.84
2023-02-25T23:03:10.688Z,6.40
2023-02-25T23:05:37.567Z,6.84
2023-02-25T23:08:04.395Z,6.93
2023-02-25T23:10:31.298Z,7.13
2023-02-25T23:12:59.400Z,6.75
2023-02-25T23:15:28.265Z,6.71
2023-02-25T23:17:55.865Z,6.17
2023-02-25T23:20:23.968Z,6.53
2023-02-25T23:22:52.856Z,6.42
2023-02-25T23:25:19.805Z,6.73
2023-02-25T23:27:46.387Z,6.80
2023-02-25T23:30:13.716Z,6.84
2023-02-25T23:32:42.009Z,6.92
2023-02-25T23:35:10.943Z,6.96
2023-02-25T23:37:38.492Z,6.81
2023-02-25T23:40:11.469Z,7.03
2023-02-25T23:42:39.962Z,6.76
2023-02-25T23:45:08.721Z,6.76
2023-02-25T23:47:38.232Z,6.64
2023-02-25T23:50:06.854Z,6.93
2023-02-25T23:52:34.381Z,7.02
2023-02-25T23:55:00.971Z,6.64
2023-02-25T23:57:27.492Z,6.94
2023-02-25T23:59:54.170Z,6.96
